Time;durP1;ratioP1;P1;durP2;ratioP2;P2;SDS_P1;SDS_P2;PMS_P1;PMS_P2;Temp;Humidity;BMP_temperature;BMP_pressure;BME280_temperature;BME280_humidity;BME280_pressure;Samples;Min_cycle;Max_cycle;Signal;HPM_P1;HPM_P2
2022/08/02 00:01:42;;;;;;;;;;;;;;;18.76;85.83;98381.21;106200;1277;22531;-80
2022/08/02 00:04:09;;;;;;;;;;;;;;;18.74;85.76;98383.74;106331;1277;124851;-80
2022/08/02 00:06:36;;;;;;;;;;;;;;;18.73;85.78;98383.08;106536;1277;25467;-80
2022/08/02 00:09:04;;;;;;;;;;;;;;;18.72;85.97;98380.12;106465;1277;124565;-80
2022/08/02 00:11:31;;;;;;;;;;;;;;;18.72;85.80;98377.26;106483;1277;22596;-81
2022/08/02 00:13:58;;;;;;;;;;;;;;;18.70;85.87;98373.54;106394;1277;22534;-80
2022/08/02 00:16:25;;;;;;;;;;;;;;;18.69;85.79;98374.11;106229;1277;124280;-80
2022/08/02 00:18:51;;;;;;;;;;;;;;;18.67;85.83;98376.78;106350;1277;23162;-80
2022/08/02 00:21:18;;;;;;;;;;;;;;;18.67;86.01;98384.27;106163;1277;124468;-80
2022/08/02 00:23:45;;;;;;;;;;;;;;;18.66;85.94;98388.38;106105;1278;25395;-80
2022/08/02 00:26:12;;;;;;;;;;;;;;;18.63;85.82;98382.91;106072;1278;23024;-80
2022/08/02 00:28:38;;;;;;;;;;;;;;;18.59;85.88;98389.59;106397;1277;124564;-80
2022/08/02 00:31:05;;;;;;;;;;;;;;;18.55;86.00;98393.55;106312;1277;24237;-80
2022/08/02 00:33:32;;;;;;;;;;;;;;;18.52;86.15;98396.36;106307;1277;124413;-80
2022/08/02 00:35:59;;;;;;;;;;;;;;;18.48;86.31;98399.58;107073;1277;22635;-80
2022/08/02 00:38:25;;;;;;;;;;;;;;;18.46;86.43;98399.39;106207;1277;23277;-79
2022/08/02 00:40:53;;;;;;;;;;;;;;;18.41;86.48;98399.23;106626;1277;124257;-80
2022/08/02 00:43:20;;;;;;;;;;;;;;;18.38;86.71;98397.46;108065;1277;24311;-80
2022/08/02 00:45:46;;;;;;;;;;;;;;;18.32;86.67;98398.33;106793;1277;124467;-80
2022/08/02 00:48:13;;;;;;;;;;;;;;;18.25;87.04;98401.01;106754;1276;23561;-79
2022/08/02 00:50:40;;;;;;;;;;;;;;;18.19;87.34;98402.23;106270;1276;23660;-80
2022/08/02 00:53:08;;;;;;;;;;;;;;;18.17;87.67;98401.23;106403;1276;124247;-79
2022/08/02 00:55:35;;;;;;;;;;;;;;;18.18;87.91;98402.65;106508;1276;25203;-79
2022/08/02 00:58:02;;;;;;;;;;;;;;;18.20;88.09;98406.46;106474;1276;124229;-79
2022/08/02 01:00:30;;;;;;;;;;;;;;;18.22;88.26;98410.86;106936;1275;22508;-80
2022/08/02 01:02:59;;;;;;;;;;;;;;;18.25;88.27;98410.62;107247;1277;125030;-82
2022/08/02 01:05:30;;;;;;;;;;;;;;;18.24;88.26;98412.22;106536;1277;25509;-81
2022/08/02 01:07:57;;;;;;;;;;;;;;;18.25;88.43;98413.69;107504;1276;24292;-80
2022/08/02 01:10:27;;;;;;;;;;;;;;;18.25;88.35;98416.23;106411;1276;124711;-79
2022/08/02 01:12:54;;;;;;;;;;;;;;;18.25;88.46;98415.02;106480;1276;24243;-80
2022/08/02 01:15:21;;;;;;;;;;;;;;;18.23;88.46;98417.20;106665;1276;124962;-81
2022/08/02 01:17:55;;;;;;;;;;;;;;;18.20;88.63;98418.28;106482;1276;26561;-79
2022/08/02 01:20:28;;;;;;;;;;;;;;;18.16;88.86;98417.27;106792;1275;22589;-81
2022/08/02 01:23:14;;;;;;;;;;;;;;;18.13;89.05;98420.96;107208;1275;124665;-80
2022/08/02 01:25:41;;;;;;;;;;;;;;;18.08;89.31;98421.20;107083;1277;23289;-80
2022/08/02 01:28:13;;;;;;;;;;;;;;;18.03;89.59;98421.75;106875;1275;124493;-79
2022/08/02 01:30:53;;;;;;;;;;;;;;;18.01;89.70;98423.92;107422;1276;23376;-80
2022/08/02 01:33:23;;;;;;;;;;;;;;;18.02;89.98;98422.38;106969;1277;124621;-79
2022/08/02 01:35:54;;;;;;;;;;;;;;;18.06;90.01;98426.58;108747;1277;22549;-79
2022/08/02 01:38:38;;;;;;;;;;;;;;;18.09;90.03;98426.96;107272;1277;22575;-79
2022/08/02 01:41:07;;;;;;;;;;;;;;;18.12;90.05;98428.19;106645;1276;124544;-79
2022/08/02 01:43:36;;;;;;;;;;;;;;;18.15;89.89;98430.41;106577;1277;23943;-79
2022/08/02 01:46:04;;;;;;;;;;;;;;;18.18;89.90;98434.40;106219;1276;124326;-79
2022/08/02 01:48:31;;;;;;;;;;;;;;;18.22;89.94;98434.69;106364;1276;24404;-80
2022/08/02 01:51:00;;;;;;;;;;;;;;;18.23;89.94;98433.62;106316;1276;124489;-79
2022/08/02 01:53:28;;;;;;;;;;;;;;;18.24;89.84;98438.45;106757;1276;22524;-79
2022/08/02 01:55:57;;;;;;;;;;;;;;;18.25;89.69;98436.78;106428;1276;25273;-79
2022/08/02 01:58:25;;;;;;;;;;;;;;;18.23;89.70;98435.66;106528;1276;124442;-80
2022/08/02 02:00:55;;;;;;;;;;;;;;;18.23;89.70;98435.55;106441;1276;22826;-80
2022/08/02 02:03:23;;;;;;;;;;;;;;;18.21;89.79;98438.77;106416;1277;124416;-80
2022/08/02 02:05:52;;;;;;;;;;;;;;;18.23;89.78;98438.20;106679;1277;24327;-80
2022/08/02 02:08:22;;;;;;;;;;;;;;;18.22;89.82;98437.95;106400;1277;22534;-80
2022/08/02 02:10:49;;;;;;;;;;;;;;;18.22;89.81;98433.63;106434;1277;124368;-79
2022/08/02 02:13:18;;;;;;;;;;;;;;;18.22;89.85;98436.45;106641;1277;22537;-79
2022/08/02 02:15:48;;;;;;;;;;;;;;;18.22;89.83;98437.27;106329;1277;124413;-79
2022/08/02 02:18:26;;;;;;;;;;;;;;;18.22;89.71;98436.21;106710;1277;23331;-80
2022/08/02 02:20:53;;;;;;;;;;;;;;;18.22;89.87;98435.30;106604;1276;26471;-79
2022/08/02 02:23:20;;;;;;;;;;;;;;;18.23;89.92;98434.12;106219;1276;124890;-79
2022/08/02 02:25:48;;;;;;;;;;;;;;;18.22;89.95;98432.70;106224;1279;24347;-79
2022/08/02 02:28:17;;;;;;;;;;;;;;;18.23;90.03;98434.84;106330;1277;124396;-79
2022/08/02 02:30:48;;;;;;;;;;;;;;;18.21;89.99;98440.48;106482;1277;23950;-79
2022/08/02 02:33:19;;;;;;;;;;;;;;;18.20;90.17;98441.16;106008;1277;124718;-79
2022/08/02 02:35:48;;;;;;;;;;;;;;;18.19;90.02;98443.10;106184;1277;22565;-79
2022/08/02 02:38:16;;;;;;;;;;;;;;;18.17;90.31;98442.41;106258;1277;22554;-79
2022/08/02 02:40:45;;;;;;;;;;;;;;;18.17;90.30;98443.39;106236;1277;124312;-79
2022/08/02 02:43:12;;;;;;;;;;;;;;;18.18;90.38;98442.35;106830;1277;22558;-79
2022/08/02 02:45:40;;;;;;;;;;;;;;;18.19;90.40;98445.09;106560;1277;124693;-79
2022/08/02 02:48:08;;;;;;;;;;;;;;;18.18;90.27;98448.73;106687;1276;25300;-79
2022/08/02 02:50:35;;;;;;;;;;;;;;;18.19;90.48;98448.79;106880;1276;24437;-80
2022/08/02 02:53:03;;;;;;;;;;;;;;;18.19;90.40;98444.02;106494;1277;124625;-80
2022/08/02 02:55:30;;;;;;;;;;;;;;;18.19;90.43;98444.69;106907;1275;26537;-80
2022/08/02 02:57:58;;;;;;;;;;;;;;;18.17;90.34;98442.84;106701;1275;124483;-80
2022/08/02 03:03:12;;;;;;;;;;;;;;;18.17;90.73;98444.39;106557;1277;124596;-80
2022/08/02 03:05:39;;;;;;;;;;;;;;;18.18;90.91;98448.17;107263;1277;22541;-80
2022/08/02 03:08:05;;;;;;;;;;;;;;;18.21;90.99;98453.60;106557;1277;25327;-80
2022/08/02 03:10:33;;;;;;;;;;;;;;;18.26;90.97;98455.42;106294;1277;124954;-80
2022/08/02 03:13:00;;;;;;;;;;;;;;;18.30;91.06;98452.33;106950;1277;22553;-79
2022/08/02 03:15:27;;;;;;;;;;;;;;;18.34;90.99;98453.77;106568;1276;124816;-80
2022/08/02 03:17:54;;;;;;;;;;;;;;;18.38;90.85;98458.50;106516;1276;22573;-79
2022/08/02 03:20:24;;;;;;;;;;;;;;;18.40;90.64;98452.03;107100;1276;24207;-80
2022/08/02 03:22:51;;;;;;;;;;;;;;;18.43;90.49;98454.63;106264;1275;124456;-80
2022/08/02 03:25:18;;;;;;;;;;;;;;;18.43;90.41;98452.75;106560;1278;23091;-80
2022/08/02 03:27:45;;;;;;;;;;;;;;;18.44;90.41;98449.94;106902;1276;124801;-79
2022/08/02 03:30:12;;;;;;;;;;;;;;;18.43;90.33;98449.56;106515;1276;24325;-79
2022/08/02 03:32:40;;;;;;;;;;;;;;;18.43;90.45;98449.18;106002;1278;24250;-79
2022/08/02 03:35:09;;;;;;;;;;;;;;;18.41;90.23;98446.77;106005;1277;124417;-79
2022/08/02 03:37:36;;;;;;;;;;;;;;;18.38;90.29;98453.88;106436;1277;22519;-80
2022/08/02 03:40:08;;;;;;;;;;;;;;;18.36;90.46;98456.06;106407;1277;125029;-80
2022/08/02 03:42:36;;;;;;;;;;;;;;;18.33;90.62;98460.11;106906;1276;25459;-80
2022/08/02 03:45:03;;;;;;;;;;;;;;;18.33;90.69;98465.02;106127;1276;125280;-80
2022/08/02 03:47:31;;;;;;;;;;;;;;;18.31;90.68;98463.95;106683;1276;22555;-80
2022/08/02 03:49:58;;;;;;;;;;;;;;;18.30;90.81;98464.84;106890;1276;24324;-81
2022/08/02 03:52:25;;;;;;;;;;;;;;;18.29;90.85;98466.40;106426;1276;124373;-80
2022/08/02 03:54:52;;;;;;;;;;;;;;;18.29;91.08;98466.80;106604;1276;22530;-81
2022/08/02 03:57:19;;;;;;;;;;;;;;;18.31;91.19;98472.39;106369;1276;124647;-80
2022/08/02 03:59:46;;;;;;;;;;;;;;;18.33;91.07;98472.47;106701;1276;22523;-81
2022/08/02 04:02:13;;;;;;;;;;;;;;;18.35;91.10;98472.17;106564;1276;22513;-80
2022/08/02 04:04:40;;;;;;;;;;;;;;;18.37;91.23;98477.48;106695;1277;124368;-80
2022/08/02 04:07:06;;;;;;;;;;;;;;;18.38;90.85;98477.59;106862;1277;24287;-80
2022/08/02 04:09:33;;;;;;;;;;;;;;;18.38;91.01;98481.61;106342;1277;125249;-81
2022/08/02 04:12:00;;;;;;;;;;;;;;;18.39;90.95;98485.61;106793;1277;22530;-81
2022/08/02 04:14:27;;;;;;;;;;;;;;;18.38;90.91;98490.53;106713;1278;22574;-81
2022/08/02 04:16:57;;;;;;;;;;;;;;;18.39;91.00;98492.45;106479;1278;125328;-80
2022/08/02 04:19:26;;;;;;;;;;;;;;;18.42;91.01;98494.35;106320;1278;22522;-80
2022/08/02 04:21:54;;;;;;;;;;;;;;;18.43;90.84;98489.66;106755;1279;124191;-79
2022/08/02 04:24:25;;;;;;;;;;;;;;;18.43;90.79;98490.92;106368;1279;22659;-79
2022/08/02 04:26:55;;;;;;;;;;;;;;;18.44;90.91;98496.14;106629;1278;22831;-80
2022/08/02 04:29:23;;;;;;;;;;;;;;;18.46;90.88;98497.89;106765;1277;124186;-80
2022/08/02 04:31:51;;;;;;;;;;;;;;;18.48;90.83;98507.02;106388;1278;25553;-79
2022/08/02 04:34:18;;;;;;;;;;;;;;;18.48;90.68;98504.59;106109;1276;124434;-80
2022/08/02 04:36:45;;;;;;;;;;;;;;;18.51;90.79;98505.98;105951;1279;23926;-79
2022/08/02 04:39:12;;;;;;;;;;;;;;;18.53;90.70;98503.20;105961;1276;124563;-80
2022/08/02 04:41:40;;;;;;;;;;;;;;;18.54;90.57;98499.50;106332;1276;22519;-79
2022/08/02 04:44:07;;;;;;;;;;;;;;;18.58;90.71;98502.25;106193;1276;22534;-79
2022/08/02 04:46:35;;;;;;;;;;;;;;;18.62;90.66;98504.00;106260;1277;124697;-80
2022/08/02 04:49:01;;;;;;;;;;;;;;;18.65;90.48;98507.23;106543;1277;25252;-79
2022/08/02 04:51:28;;;;;;;;;;;;;;;18.66;90.53;98504.95;106118;1277;124545;-79
2022/08/02 04:53:55;;;;;;;;;;;;;;;18.69;90.51;98504.59;106294;1276;22579;-79
2022/08/02 04:56:21;;;;;;;;;;;;;;;18.71;90.39;98507.42;105867;1276;25336;-79
2022/08/02 04:58:48;;;;;;;;;;;;;;;18.73;90.13;98509.98;106667;1276;124322;-80
2022/08/02 05:01:15;;;;;;;;;;;;;;;18.75;90.10;98509.73;106084;1278;22533;-79
2022/08/02 05:03:42;;;;;;;;;;;;;;;18.79;90.24;98511.06;106231;1276;124542;-79
2022/08/02 05:06:08;;;;;;;;;;;;;;;18.81;89.79;98517.77;106263;1278;22642;-79
2022/08/02 05:08:35;;;;;;;;;;;;;;;18.81;89.58;98517.12;106129;1277;22590;-79
2022/08/02 05:11:02;;;;;;;;;;;;;;;18.83;89.80;98522.13;105783;1277;124480;-80
2022/08/02 05:13:29;;;;;;;;;;;;;;;18.87;89.70;98523.13;106068;1277;25346;-80
2022/08/02 05:15:57;;;;;;;;;;;;;;;18.87;89.25;98525.27;106332;1277;124580;-80
2022/08/02 05:18:24;;;;;;;;;;;;;;;18.84;88.96;98527.14;106222;1277;24422;-80
2022/08/02 05:20:51;;;;;;;;;;;;;;;18.83;88.89;98529.27;106230;1277;22561;-81
2022/08/02 05:23:17;;;;;;;;;;;;;;;18.80;88.77;98531.14;106235;1277;124240;-82
2022/08/02 05:25:44;;;;;;;;;;;;;;;18.80;88.90;98528.92;106337;1276;22518;-82
2022/08/02 05:28:11;;;;;;;;;;;;;;;18.81;88.74;98531.75;106195;1276;124342;-82
2022/08/02 05:30:38;;;;;;;;;;;;;;;18.85;88.78;98535.34;106426;1276;23046;-81
2022/08/02 05:33:05;;;;;;;;;;;;;;;18.89;88.78;98539.87;106054;1276;124596;-82
2022/08/02 05:35:32;;;;;;;;;;;;;;;18.95;88.58;98539.11;106504;1276;23343;-82
2022/08/02 05:37:59;;;;;;;;;;;;;;;19.01;88.37;98538.27;106385;1277;22646;-81
2022/08/02 05:40:26;;;;;;;;;;;;;;;19.06;88.30;98536.86;106200;1277;124396;-82
2022/08/02 05:42:53;;;;;;;;;;;;;;;19.12;88.29;98541.52;106445;1277;22624;-81
2022/08/02 05:45:20;;;;;;;;;;;;;;;19.23;88.32;98544.72;106142;1276;124508;-82
2022/08/02 05:47:47;;;;;;;;;;;;;;;19.33;88.06;98544.08;106307;1276;22594;-81
2022/08/02 05:50:14;;;;;;;;;;;;;;;19.44;87.92;98541.80;106294;1276;25217;-85
2022/08/02 05:52:45;;;;;;;;;;;;;;;19.53;87.24;98546.78;106155;1277;125312;-82
2022/08/02 05:55:17;;;;;;;;;;;;;;;19.58;86.09;98547.91;106552;1279;24230;-84
2022/08/02 05:57:54;;;;;;;;;;;;;;;19.58;84.90;98554.27;106407;1277;124562;-87
2022/08/02 06:00:21;;;;;;;;;;;;;;;19.61;84.65;98556.65;106278;1277;22467;-84
2022/08/02 06:02:57;;;;;;;;;;;;;;;19.67;84.48;98560.02;106636;1277;22740;-81
2022/08/02 06:05:26;;;;;;;;;;;;;;;19.78;84.07;98561.48;106577;1276;124546;-84
2022/08/02 06:07:54;;;;;;;;;;;;;;;19.86;83.75;98560.39;106387;1279;22644;-84
2022/08/02 06:10:21;;;;;;;;;;;;;;;19.98;83.48;98554.43;106300;1276;125366;-84
2022/08/02 06:12:53;;;;;;;;;;;;;;;20.04;82.88;98552.34;106175;1277;22559;-83
2022/08/02 06:15:20;;;;;;;;;;;;;;;20.05;82.46;98554.79;106118;1276;124523;-83
2022/08/02 06:17:47;;;;;;;;;;;;;;;20.04;82.26;98553.21;106351;1277;25336;-81
2022/08/02 06:20:14;;;;;;;;;;;;;;;20.06;82.41;98561.73;106280;1277;24369;-83
2022/08/02 06:22:42;;;;;;;;;;;;;;;20.11;82.48;98560.81;106443;1277;124354;-84
2022/08/02 06:25:12;;;;;;;;;;;;;;;20.15;82.27;98562.79;106220;1277;22639;-83
2022/08/02 06:27:40;;;;;;;;;;;;;;;20.20;82.57;98564.68;106435;1279;124556;-83
2022/08/02 06:30:07;;;;;;;;;;;;;;;20.28;82.43;98564.74;106120;1277;22547;-83
2022/08/02 06:32:34;;;;;;;;;;;;;;;20.39;82.21;98569.85;106186;1278;24532;-83
2022/08/02 06:35:02;;;;;;;;;;;;;;;20.44;81.57;98572.03;106325;1278;124275;-81
2022/08/02 06:37:32;;;;;;;;;;;;;;;20.46;81.63;98572.64;106298;1276;22558;-83
2022/08/02 06:40:14;;;;;;;;;;;;;;;20.47;80.99;98577.83;106265;1276;125148;-84
2022/08/02 06:42:49;;;;;;;;;;;;;;;20.47;80.76;98583.98;106411;1276;25219;-81
2022/08/02 06:45:16;;;;;;;;;;;;;;;20.51;80.82;98584.29;106349;1276;124565;-84
2022/08/02 06:47:43;;;;;;;;;;;;;;;20.53;80.49;98590.33;106611;1277;25309;-82
2022/08/02 06:50:10;;;;;;;;;;;;;;;20.52;80.35;98587.02;106935;1277;22551;-81
2022/08/02 06:52:37;;;;;;;;;;;;;;;20.52;80.57;98589.73;106302;1277;124913;-83
2022/08/02 06:55:05;;;;;;;;;;;;;;;20.55;80.74;98594.21;106853;1277;22714;-85
2022/08/02 06:57:32;;;;;;;;;;;;;;;20.57;80.63;98592.52;106659;1278;124713;-84
2022/08/02 07:00:05;;;;;;;;;;;;;;;20.59;80.84;98599.33;106321;1279;436054;-83
2022/08/02 07:02:33;;;;;;;;;;;;;;;20.64;80.56;98596.61;106867;1276;22541;-82
2022/08/02 07:05:00;;;;;;;;;;;;;;;20.69;80.24;98593.86;106780;1276;124477;-83
2022/08/02 07:07:27;;;;;;;;;;;;;;;20.77;79.95;98593.52;106726;1276;22651;-82
2022/08/02 07:09:54;;;;;;;;;;;;;;;20.87;79.71;98589.77;106874;1277;124578;-84
2022/08/02 07:12:20;;;;;;;;;;;;;;;20.97;79.40;98585.90;106656;1280;22555;-80
2022/08/02 07:14:47;;;;;;;;;;;;;;;21.09;78.81;98582.96;106757;1280;23306;-81
2022/08/02 07:17:14;;;;;;;;;;;;;;;21.20;78.55;98580.22;106651;1279;124471;-82
2022/08/02 07:19:42;;;;;;;;;;;;;;;21.28;78.12;98578.23;106554;1279;22577;-82
2022/08/02 07:22:09;;;;;;;;;;;;;;;21.43;78.14;98583.30;106701;1279;124353;-84
2022/08/02 07:24:39;;;;;;;;;;;;;;;21.49;77.20;98586.99;106226;1279;24258;-85
2022/08/02 07:27:17;;;;;;;;;;;;;;;21.47;76.68;98588.31;106423;1279;125354;-84
2022/08/02 07:29:45;;;;;;;;;;;;;;;21.42;76.58;98586.26;105892;1283;22672;-83
2022/08/02 07:32:11;;;;;;;;;;;;;;;21.44;76.92;98588.98;106367;1281;22538;-85
2022/08/02 07:34:38;;;;;;;;;;;;;;;21.49;76.75;98589.38;106256;1281;124569;-89
2022/08/02 07:37:08;;;;;;;;;;;;;;;21.49;75.93;98587.67;106163;1282;24439;-88
2022/08/02 07:39:34;;;;;;;;;;;;;;;21.46;76.07;98592.67;105508;1282;124533;-84
2022/08/02 07:42:01;;;;;;;;;;;;;;;21.47;76.17;98596.08;106041;1281;22525;-85
2022/08/02 07:44:33;;;;;;;;;;;;;;;21.53;76.28;98599.39;105884;1281;22613;-83
2022/08/02 07:47:00;;;;;;;;;;;;;;;21.55;76.23;98596.59;105999;1281;125077;-86
2022/08/02 07:49:28;;;;;;;;;;;;;;;21.65;76.27;98594.61;106336;1277;22543;-83
2022/08/02 07:51:54;;;;;;;;;;;;;;;21.71;76.33;98595.52;106185;1277;124558;-81
2022/08/02 07:54:22;;;;;;;;;;;;;;;21.80;76.15;98596.61;106360;1276;22541;-85
2022/08/02 07:56:50;;;;;;;;;;;;;;;21.91;75.67;98593.55;106397;1277;22550;-86
2022/08/02 07:59:17;;;;;;;;;;;;;;;21.97;75.03;98597.73;106481;1276;124095;-87
2022/08/02 08:01:44;;;;;;;;;;;;;;;22.08;74.42;98597.02;106552;1276;25384;-83
2022/08/02 08:04:11;;;;;;;;;;;;;;;22.24;74.81;98597.63;105996;1277;124416;-81
2022/08/02 08:06:40;;;;;;;;;;;;;;;22.42;74.69;98597.50;106405;1276;22592;-83
2022/08/02 08:09:07;;;;;;;;;;;;;;;22.49;73.68;98594.10;106350;1277;124946;-81
2022/08/02 08:11:34;;;;;;;;;;;;;;;22.56;73.40;98593.27;106286;1277;22520;-81
2022/08/02 08:14:01;;;;;;;;;;;;;;;22.66;73.07;98591.52;106668;1277;25235;-85
2022/08/02 08:16:28;;;;;;;;;;;;;;;22.73;72.77;98592.68;106338;1277;124330;-85
2022/08/02 08:18:55;;;;;;;;;;;;;;;22.76;71.89;98594.55;106894;1276;24276;-88
2022/08/02 08:21:22;;;;;;;;;;;;;;;22.80;72.32;98595.15;107430;1276;124525;-84
2022/08/02 08:23:49;;;;;;;;;;;;;;;22.97;72.65;98597.76;106687;1277;22604;-83
2022/08/02 08:26:16;;;;;;;;;;;;;;;23.04;71.14;98590.23;106822;1276;22606;-82
2022/08/02 08:28:42;;;;;;;;;;;;;;;23.10;71.12;98596.29;106886;1276;124401;-81
2022/08/02 08:31:09;;;;;;;;;;;;;;;23.10;70.31;98601.95;107105;1276;25330;-80
2022/08/02 08:33:36;;;;;;;;;;;;;;;23.10;70.66;98602.50;106840;1277;123827;-77
2022/08/02 08:36:03;;;;;;;;;;;;;;;23.12;70.20;98599.33;106808;1276;22557;-81
2022/08/02 08:38:30;;;;;;;;;;;;;;;23.15;70.17;98596.23;106611;1276;24287;-84
2022/08/02 08:40:57;;;;;;;;;;;;;;;23.20;70.21;98596.98;107320;1277;124889;-84
2022/08/02 08:43:23;;;;;;;;;;;;;;;23.35;69.81;98601.80;107354;1277;24308;-84
2022/08/02 08:45:50;;;;;;;;;;;;;;;23.50;69.24;98602.97;106907;1277;124837;-84
2022/08/02 08:48:17;;;;;;;;;;;;;;;23.65;68.98;98603.33;107032;1276;24222;-85
2022/08/02 08:50:55;;;;;;;;;;;;;;;23.73;67.94;98609.35;107079;1276;22543;-80
2022/08/02 08:53:23;;;;;;;;;;;;;;;23.76;67.70;98607.66;106695;1276;123594;-84
2022/08/02 08:55:51;;;;;;;;;;;;;;;23.88;68.13;98605.66;106858;1276;23261;-85
2022/08/02 08:58:19;;;;;;;;;;;;;;;24.07;68.47;98608.14;106651;1276;124864;-84
2022/08/02 09:00:46;;;;;;;;;;;;;;;24.25;66.76;98603.29;106725;1276;23457;-85
2022/08/02 09:03:13;;;;;;;;;;;;;;;24.44;67.11;98605.68;107784;1277;124548;-81
2022/08/02 09:05:40;;;;;;;;;;;;;;;24.67;66.28;98603.23;106783;1277;24238;-83
2022/08/02 09:08:08;;;;;;;;;;;;;;;24.85;64.81;98599.02;106468;1278;24975;-83
2022/08/02 09:10:39;;;;;;;;;;;;;;;24.96;64.74;98592.70;106863;1277;123667;-83
2022/08/02 09:13:09;;;;;;;;;;;;;;;25.12;63.98;98593.64;106895;1278;24271;-85
2022/08/02 09:15:36;;;;;;;;;;;;;;;25.27;63.63;98590.34;106957;1277;123897;-84
2022/08/02 09:18:04;;;;;;;;;;;;;;;25.43;62.85;98593.90;106592;1277;23200;-83
2022/08/02 09:20:49;;;;;;;;;;;;;;;25.55;62.11;98593.95;106874;1277;24467;-85
2022/08/02 09:23:17;;;;;;;;;;;;;;;25.66;62.02;98599.52;106639;1276;124125;-82
2022/08/02 09:26:03;;;;;;;;;;;;;;;25.80;61.89;98597.56;106886;1279;22564;-82
2022/08/02 09:28:33;;;;;;;;;;;;;;;26.02;61.23;98601.16;106623;1278;123937;-82
2022/08/02 09:31:03;;;;;;;;;;;;;;;26.13;60.61;98599.41;106952;1277;25288;-82
2022/08/02 09:33:31;;;;;;;;;;;;;;;26.25;60.06;98601.08;106787;1277;123976;-81
2022/08/02 09:36:11;;;;;;;;;;;;;;;26.21;59.06;98602.21;106561;1277;22576;-81
2022/08/02 09:38:39;;;;;;;;;;;;;;;26.03;58.69;98606.05;108013;1277;26614;-82
2022/08/02 09:41:18;;;;;;;;;;;;;;;25.82;59.41;98601.14;106549;1276;123666;-84
2022/08/02 09:43:45;;;;;;;;;;;;;;;25.52;59.37;98601.16;107051;1276;25463;-85
2022/08/02 09:46:20;;;;;;;;;;;;;;;25.19;60.31;98605.70;106685;1276;123652;-86
2022/08/02 09:48:48;;;;;;;;;;;;;;;24.92;61.14;98598.82;106471;1277;24250;-85
2022/08/02 09:51:29;;;;;;;;;;;;;;;24.87;61.18;98602.05;106368;1277;123809;-81
2022/08/02 09:53:57;;;;;;;;;;;;;;;24.75;60.78;98606.91;106427;1277;22537;-82
2022/08/02 09:56:25;;;;;;;;;;;;;;;24.55;59.74;98607.67;106433;1277;25375;-82
2022/08/02 09:58:53;;;;;;;;;;;;;;;24.36;60.23;98608.69;106463;1276;124170;-83
2022/08/02 10:01:20;;;;;;;;;;;;;;;24.30;61.47;98604.05;106606;1277;22560;-85
2022/08/02 10:03:52;;;;;;;;;;;;;;;24.56;62.41;98606.49;106243;1278;124087;-83
2022/08/02 10:06:20;;;;;;;;;;;;;;;24.86;62.09;98599.78;106485;1276;22528;-86
2022/08/02 10:08:46;;;;;;;;;;;;;;;25.11;61.56;98598.30;106273;1277;22533;-83
2022/08/02 10:11:13;;;;;;;;;;;;;;;25.14;59.52;98592.74;106302;1277;125618;-80
2022/08/02 10:13:41;;;;;;;;;;;;;;;25.06;58.97;98594.50;106602;1277;22579;-83
2022/08/02 10:16:09;;;;;;;;;;;;;;;24.92;57.52;98586.39;106382;1277;123590;-83
2022/08/02 10:18:36;;;;;;;;;;;;;;;24.75;57.89;98582.86;106234;1277;24063;-83
2022/08/02 10:21:05;;;;;;;;;;;;;;;24.80;58.27;98581.39;106375;1277;123814;-83
2022/08/02 10:23:33;;;;;;;;;;;;;;;24.76;58.22;98581.96;106275;1277;25242;-85
2022/08/02 10:26:01;;;;;;;;;;;;;;;24.92;58.99;98579.73;106158;1278;25295;-83
2022/08/02 10:28:31;;;;;;;;;;;;;;;25.22;59.52;98581.13;107102;1277;123723;-84
2022/08/02 10:31:00;;;;;;;;;;;;;;;25.38;57.53;98583.12;106665;1277;23985;-83
2022/08/02 10:33:27;;;;;;;;;;;;;;;25.18;56.90;98584.00;106420;1278;124108;-85
2022/08/02 10:35:56;;;;;;;;;;;;;;;25.12;57.23;98582.86;106274;1277;23221;-85
2022/08/02 10:38:24;;;;;;;;;;;;;;;25.24;56.80;98581.42;106456;1277;22542;-84
2022/08/02 10:40:53;;;;;;;;;;;;;;;25.37;57.22;98578.05;106416;1277;124355;-83
2022/08/02 10:43:35;;;;;;;;;;;;;;;25.53;56.97;98577.52;106632;1277;22607;-84
2022/08/02 10:46:20;;;;;;;;;;;;;;;25.66;56.62;98577.45;106351;1277;123840;-85
2022/08/02 10:49:01;;;;;;;;;;;;;;;25.49;57.57;98582.63;106605;1277;25352;-82
2022/08/02 10:51:47;;;;;;;;;;;;;;;25.12;57.23;98591.96;106222;1277;123983;-82
2022/08/02 10:54:19;;;;;;;;;;;;;;;24.72;56.93;98586.48;106750;1277;23413;-85
2022/08/02 10:56:50;;;;;;;;;;;;;;;24.66;57.78;98592.45;106673;1281;22593;-83
2022/08/02 10:59:27;;;;;;;;;;;;;;;24.89;58.10;98582.15;108397;1279;124210;-85
2022/08/02 11:02:01;;;;;;;;;;;;;;;25.17;57.52;98581.80;108094;1277;25281;-86
2022/08/02 11:04:52;;;;;;;;;;;;;;;25.47;57.68;98580.34;106579;1277;123811;-85
2022/08/02 11:07:30;;;;;;;;;;;;;;;25.50;55.88;98584.44;106598;1276;22548;-84
2022/08/02 11:09:59;;;;;;;;;;;;;;;25.44;56.08;98582.11;106419;1277;123911;-84
2022/08/02 11:12:28;;;;;;;;;;;;;;;25.58;56.58;98583.70;106702;1277;25570;-82
2022/08/02 11:15:02;;;;;;;;;;;;;;;25.72;56.18;98580.78;106426;1277;22548;-84
2022/08/02 11:17:49;;;;;;;;;;;;;;;26.02;56.26;98581.52;107889;1276;24326;-83
2022/08/02 11:20:17;;;;;;;;;;;;;;;26.28;55.73;98586.66;106427;1276;22792;-87
2022/08/02 11:22:44;;;;;;;;;;;;;;;26.36;54.83;98577.07;106405;1277;124056;-86
2022/08/02 11:25:20;;;;;;;;;;;;;;;26.42;54.62;98581.16;106079;1278;24262;-84
2022/08/02 11:27:51;;;;;;;;;;;;;;;26.35;54.02;98578.86;106821;1277;123942;-83
2022/08/02 11:30:18;;;;;;;;;;;;;;;26.29;53.69;98579.20;106885;1277;22625;-86
2022/08/02 11:32:46;;;;;;;;;;;;;;;26.29;54.68;98581.14;107127;1277;22777;-84
2022/08/02 11:35:13;;;;;;;;;;;;;;;26.34;54.60;98574.04;106569;1277;124211;-87
2022/08/02 11:37:42;;;;;;;;;;;;;;;26.44;54.67;98579.79;106351;1278;23342;-83
2022/08/02 11:40:13;;;;;;;;;;;;;;;26.53;53.77;98583.20;106317;1277;124039;-83
2022/08/02 11:42:43;;;;;;;;;;;;;;;26.63;53.58;98583.33;106536;1277;23835;-81
2022/08/02 11:45:14;;;;;;;;;;;;;;;26.60;53.02;98589.05;106184;1277;123914;-83
2022/08/02 11:47:59;;;;;;;;;;;;;;;26.15;52.72;98585.10;106793;1276;22580;-85
2022/08/02 11:50:26;;;;;;;;;;;;;;;25.85;53.74;98590.90;106614;1277;23387;-88
2022/08/02 11:52:54;;;;;;;;;;;;;;;25.64;54.35;98587.34;106587;1277;123721;-87
2022/08/02 11:55:27;;;;;;;;;;;;;;;25.56;55.50;98588.24;106679;1277;22561;-88
2022/08/02 11:57:58;;;;;;;;;;;;;;;25.80;55.86;98586.33;107210;1276;123863;-84
2022/08/02 12:00:25;;;;;;;;;;;;;;;25.99;55.26;98582.57;106781;1277;24321;-83
2022/08/02 12:02:52;;;;;;;;;;;;;;;26.21;55.63;98582.86;106727;1276;23139;-85
2022/08/02 12:05:22;;;;;;;;;;;;;;;26.44;54.44;98581.77;106330;1277;124034;-79
2022/08/02 12:07:50;;;;;;;;;;;;;;;26.56;53.83;98583.77;106504;1276;26505;-84
2022/08/02 12:10:21;;;;;;;;;;;;;;;26.64;52.05;98586.87;106493;1276;124085;-86
2022/08/02 12:12:52;;;;;;;;;;;;;;;26.77;52.96;98579.55;106499;1277;25282;-84
2022/08/02 12:15:32;;;;;;;;;;;;;;;26.87;51.18;98581.23;106695;1277;124134;-82
2022/08/02 12:20:45;;;;;;;;;;;;;;;26.17;51.49;98586.20;106521;1277;25236;-83
2022/08/02 12:23:12;;;;;;;;;;;;;;;25.82;52.28;98583.29;106588;1276;123735;-86
2022/08/02 12:25:39;;;;;;;;;;;;;;;25.59;53.00;98587.70;106576;1276;22565;-85
2022/08/02 12:28:13;;;;;;;;;;;;;;;25.67;54.73;98584.19;106404;1277;123914;-88
2022/08/02 12:30:50;;;;;;;;;;;;;;;25.70;54.54;98588.81;106158;1277;25618;-87
2022/08/02 12:33:17;;;;;;;;;;;;;;;25.54;53.22;98584.42;106367;1276;123981;-85
2022/08/02 12:35:44;;;;;;;;;;;;;;;25.46;53.52;98586.27;106569;1277;22575;-88
2022/08/02 12:38:11;;;;;;;;;;;;;;;25.50;54.78;98584.83;106425;1277;25235;-82
2022/08/02 12:40:38;;;;;;;;;;;;;;;25.47;55.37;98588.13;106539;1276;123880;-86
2022/08/02 12:43:06;;;;;;;;;;;;;;;25.62;55.27;98586.48;106517;1277;25286;-83
2022/08/02 12:45:47;;;;;;;;;;;;;;;25.98;55.07;98582.91;106371;1276;124237;-83
2022/08/02 12:48:14;;;;;;;;;;;;;;;26.41;54.37;98580.98;106462;1277;22565;-86